Mariano I. Loza, Argentina
Current Conditions -  °F | °C
As of 1:00 PM on Saturday 25 Oct 2014 (Local Time) from SARL Reporting Station
Clear Clear  
Wind Chill: 84°   Ceiling: Unl
Heat Index: 86°   Visibility: 6mi
Dew Point: 66°   Wind: 8mph
Humidity: 55%   Direction: 140°SE
Pressure: 29.88"   Gusts: NA
Location:  29.37°S, 58.2°W
Report Text: SARL 251600Z 14007KT CAVOK 29/19 Q1012
Loading
Personal Weather Stations






























Interactive Weather Map New forecast layout! Learn more

10-Day Weather Forecast

Advertisements
Track Severe Weather on mobile